Time;durP1;ratioP1;P1;durP2;ratioP2;P2;SDS_P1;SDS_P2;PMS_P1;PMS_P2;Temp;Humidity;BMP_temperature;BMP_pressure;BME280_temperature;BME280_humidity;BME280_pressure;Samples;Min_cycle;Max_cycle;Signal;HPM_P1;HPM_P2
2021/06/24 00:01:33;;;;;;;0.85;0.65;;;;;;;;;;5072083;28;20673;-75
2021/06/24 00:03:59;;;;;;;0.60;0.60;;;;;;;;;;5072280;28;20139;-75
2021/06/24 00:06:25;;;;;;;1.25;1.15;;;;;;;;;;5071752;28;20163;-75
2021/06/24 00:08:51;;;;;;;0.68;0.63;;;;;;;;;;5072810;28;20102;-75
2021/06/24 00:11:17;;;;;;;0.50;0.50;;;;;;;;;;5072188;28;20084;-75
2021/06/24 00:13:43;;;;;;;1.42;0.80;;;;;;;;;;5071705;28;20083;-75
2021/06/24 00:16:10;;;;;;;1.17;0.68;;;;;;;;;;5071880;28;20507;-75
2021/06/24 00:18:36;;;;;;;1.00;0.93;;;;;;;;;;5072268;28;20060;-75
2021/06/24 00:21:02;;;;;;;0.90;0.90;;;;;;;;;;5072516;28;20055;-75
2021/06/24 00:23:29;;;;;;;1.15;1.05;;;;;;;;;;5071645;28;20044;-75
2021/06/24 00:25:55;;;;;;;1.40;0.80;;;;;;;;;;5071610;28;20102;-75
2021/06/24 00:28:23;;;;;;;0.70;0.70;;;;;;;;;;5071491;28;20056;-75
2021/06/24 00:30:51;;;;;;;0.73;0.73;;;;;;;;;;5071899;28;20056;-75
2021/06/24 00:33:17;;;;;;;0.95;0.82;;;;;;;;;;5071052;28;20048;-75
2021/06/24 00:35:44;;;;;;;0.52;0.52;;;;;;;;;;5071453;28;20044;-75
2021/06/24 00:38:10;;;;;;;0.85;0.85;;;;;;;;;;5071505;28;20051;-75
2021/06/24 00:40:37;;;;;;;0.60;0.60;;;;;;;;;;5071619;28;20048;-75
2021/06/24 00:43:07;;;;;;;0.77;0.70;;;;;;;;;;5071695;28;20135;-75
2021/06/24 00:45:33;;;;;;;1.00;1.00;;;;;;;;;;5070781;28;20472;-75
2021/06/24 00:48:00;;;;;;;1.00;1.00;;;;;;;;;;5071817;28;20051;-75
2021/06/24 00:50:26;;;;;;;0.80;0.80;;;;;;;;;;5070865;28;20521;-75
2021/06/24 00:52:52;;;;;;;0.73;0.73;;;;;;;;;;5071639;28;20477;-75
2021/06/24 00:55:18;;;;;;;0.65;0.47;;;;;;;;;;5070567;28;20046;-75
2021/06/24 00:58:04;;;;;;;0.98;0.98;;;;;;;;;;5070959;28;20060;-75
2021/06/24 01:00:30;;;;;;;0.57;0.57;;;;;;;;;;5070359;28;20060;-75
2021/06/24 01:02:56;;;;;;;1.13;0.82;;;;;;;;;;5070473;28;20434;-75
2021/06/24 01:05:22;;;;;;;1.17;1.08;;;;;;;;;;5069832;28;20052;-75
2021/06/24 01:07:48;;;;;;;1.35;1.20;;;;;;;;;;5070557;28;20079;-75
2021/06/24 01:10:14;;;;;;;0.60;0.60;;;;;;;;;;5070323;28;20055;-75
2021/06/24 01:12:41;;;;;;;1.77;0.70;;;;;;;;;;5071529;28;20040;-75
2021/06/24 01:15:07;;;;;;;0.55;0.55;;;;;;;;;;5070842;28;20048;-75
2021/06/24 01:17:33;;;;;;;1.13;1.02;;;;;;;;;;5070287;28;20048;-75
2021/06/24 01:19:59;;;;;;;0.50;0.50;;;;;;;;;;5070841;28;20123;-75
2021/06/24 01:22:25;;;;;;;1.35;1.25;;;;;;;;;;5070580;28;20044;-75
2021/06/24 01:24:51;;;;;;;0.60;0.52;;;;;;;;;;5070582;28;20471;-75
2021/06/24 01:27:17;;;;;;;0.90;0.52;;;;;;;;;;5069632;28;20121;-75
2021/06/24 01:29:43;;;;;;;0.63;0.47;;;;;;;;;;5070562;28;20054;-75
2021/06/24 01:32:10;;;;;;;0.88;0.68;;;;;;;;;;5070278;28;20076;-75
2021/06/24 01:34:38;;;;;;;0.88;0.85;;;;;;;;;;5069221;28;20049;-75
2021/06/24 01:37:05;;;;;;;0.77;0.77;;;;;;;;;;5071015;28;20049;-75
2021/06/24 01:39:31;;;;;;;0.70;0.60;;;;;;;;;;5069675;28;20603;-75
2021/06/24 01:41:58;;;;;;;0.60;0.60;;;;;;;;;;5069799;28;20044;-75
2021/06/24 01:44:28;;;;;;;1.73;0.68;;;;;;;;;;5069376;28;21066;-76
2021/06/24 01:46:54;;;;;;;0.55;0.55;;;;;;;;;;5070389;28;20044;-75
2021/06/24 01:49:20;;;;;;;0.95;0.95;;;;;;;;;;5069150;28;20044;-75
2021/06/24 01:51:46;;;;;;;0.77;0.77;;;;;;;;;;5070203;28;20416;-75
2021/06/24 01:54:12;;;;;;;0.60;0.60;;;;;;;;;;5069387;28;20056;-75
2021/06/24 01:56:38;;;;;;;0.68;0.60;;;;;;;;;;5069244;28;20487;-75
2021/06/24 01:59:04;;;;;;;1.20;0.98;;;;;;;;;;5069521;28;20067;-75
2021/06/24 02:01:30;;;;;;;1.83;0.85;;;;;;;;;;5069545;28;20585;-75
2021/06/24 02:03:57;;;;;;;0.57;0.52;;;;;;;;;;5070237;28;20135;-75
2021/06/24 02:06:23;;;;;;;0.68;0.68;;;;;;;;;;5068853;28;20050;-75
2021/06/24 02:08:50;;;;;;;0.57;0.57;;;;;;;;;;5070741;28;20499;-75
2021/06/24 02:11:16;;;;;;;1.08;0.80;;;;;;;;;;5069329;28;20083;-75
2021/06/24 02:13:42;;;;;;;0.68;0.65;;;;;;;;;;5069093;28;20052;-73
2021/06/24 02:16:08;;;;;;;1.02;0.90;;;;;;;;;;5069887;28;20052;-75
2021/06/24 02:18:34;;;;;;;1.90;0.93;;;;;;;;;;5069982;28;20098;-75
2021/06/24 02:21:00;;;;;;;1.00;0.90;;;;;;;;;;5068978;28;20040;-75
2021/06/24 02:23:27;;;;;;;1.48;1.30;;;;;;;;;;5068766;28;20041;-75
2021/06/24 02:25:53;;;;;;;1.05;0.90;;;;;;;;;;5070115;28;20048;-75
2021/06/24 02:28:20;;;;;;;0.68;0.68;;;;;;;;;;5069368;28;20040;-75
2021/06/24 02:30:46;;;;;;;1.20;1.10;;;;;;;;;;5069270;28;20118;-75
2021/06/24 02:33:12;;;;;;;0.73;0.65;;;;;;;;;;5068675;28;20055;-75
2021/06/24 02:35:38;;;;;;;0.75;0.73;;;;;;;;;;5069020;28;20109;-75
2021/06/24 02:38:06;;;;;;;1.23;1.13;;;;;;;;;;5070143;28;20424;-75
2021/06/24 02:40:32;;;;;;;1.70;0.80;;;;;;;;;;5069668;28;20044;-75
2021/06/24 02:42:58;;;;;;;0.75;0.65;;;;;;;;;;5068796;28;20040;-75
2021/06/24 02:45:24;;;;;;;1.23;1.17;;;;;;;;;;5068900;28;20060;-75
2021/06/24 02:47:50;;;;;;;1.33;1.23;;;;;;;;;;5069597;28;20084;-75
2021/06/24 02:50:17;;;;;;;2.30;0.88;;;;;;;;;;5068950;28;20072;-73
2021/06/24 02:52:43;;;;;;;1.73;1.42;;;;;;;;;;5068900;28;20120;-73
2021/06/24 02:55:09;;;;;;;0.80;0.70;;;;;;;;;;5068990;28;20074;-73
2021/06/24 02:57:35;;;;;;;0.65;0.65;;;;;;;;;;5069426;28;20048;-75
2021/06/24 03:00:02;;;;;;;0.93;0.88;;;;;;;;;;5070025;28;20052;-75
2021/06/24 03:02:28;;;;;;;0.77;0.77;;;;;;;;;;5068746;28;20083;-76
2021/06/24 03:04:54;;;;;;;1.63;1.25;;;;;;;;;;5068744;28;20052;-76
2021/06/24 03:07:20;;;;;;;0.50;0.50;;;;;;;;;;5068681;28;20061;-75
2021/06/24 03:09:46;;;;;;;0.40;0.40;;;;;;;;;;5069991;28;20570;-75
2021/06/24 03:12:12;;;;;;;0.90;0.90;;;;;;;;;;5069109;28;20064;-75
2021/06/24 03:14:38;;;;;;;0.80;0.80;;;;;;;;;;5068571;28;20131;-75
2021/06/24 03:17:05;;;;;;;0.93;0.93;;;;;;;;;;5069112;28;20053;-75
2021/06/24 03:19:31;;;;;;;0.75;0.73;;;;;;;;;;5068943;28;20049;-75
2021/06/24 03:21:57;;;;;;;2.25;1.05;;;;;;;;;;5069499;28;20066;-75
2021/06/24 03:24:23;;;;;;;0.77;0.52;;;;;;;;;;5068913;28;20044;-75
2021/06/24 03:26:49;;;;;;;0.80;0.77;;;;;;;;;;5073200;28;20163;-75
2021/06/24 03:29:15;;;;;;;1.10;1.00;;;;;;;;;;5072548;28;20197;-75
2021/06/24 03:31:41;;;;;;;0.70;0.70;;;;;;;;;;5072353;28;20449;-75
2021/06/24 03:34:07;;;;;;;0.70;0.70;;;;;;;;;;5072498;28;20045;-75
2021/06/24 03:36:33;;;;;;;2.13;0.70;;;;;;;;;;5072113;28;20040;-75
2021/06/24 03:38:59;;;;;;;0.70;0.70;;;;;;;;;;5072583;28;20080;-75
2021/06/24 03:41:26;;;;;;;0.77;0.60;;;;;;;;;;5072572;28;20044;-75
2021/06/24 03:43:55;;;;;;;1.00;0.85;;;;;;;;;;5072692;28;20080;-75
2021/06/24 03:46:22;;;;;;;0.80;0.80;;;;;;;;;;5071546;28;20050;-75
2021/06/24 03:48:49;;;;;;;0.85;0.85;;;;;;;;;;5072461;28;20071;-75
2021/06/24 03:51:15;;;;;;;0.88;0.60;;;;;;;;;;5072193;28;20041;-75
2021/06/24 03:53:41;;;;;;;1.02;0.73;;;;;;;;;;5072441;28;20049;-75
2021/06/24 03:56:08;;;;;;;0.80;0.70;;;;;;;;;;5071104;28;20075;-75
2021/06/24 03:58:34;;;;;;;1.00;0.95;;;;;;;;;;5072320;28;20485;-75
2021/06/24 04:01:01;;;;;;;1.13;0.70;;;;;;;;;;5072357;28;20044;-75
2021/06/24 04:03:27;;;;;;;0.70;0.70;;;;;;;;;;5071862;28;20056;-75
2021/06/24 04:05:53;;;;;;;1.10;0.88;;;;;;;;;;5072097;28;20479;-75
2021/06/24 04:08:19;;;;;;;1.02;0.77;;;;;;;;;;5071460;28;20079;-75
2021/06/24 04:10:46;;;;;;;1.02;0.80;;;;;;;;;;5072020;28;20040;-75
2021/06/24 04:13:12;;;;;;;0.47;0.43;;;;;;;;;;5071750;28;20146;-75
2021/06/24 04:15:38;;;;;;;2.60;0.77;;;;;;;;;;5071684;28;20056;-75
2021/06/24 04:18:05;;;;;;;0.43;0.32;;;;;;;;;;5071758;28;20090;-75
2021/06/24 04:20:32;;;;;;;1.02;0.60;;;;;;;;;;5071630;28;20519;-75
2021/06/24 04:22:59;;;;;;;0.75;0.70;;;;;;;;;;5072296;28;20044;-75
2021/06/24 04:25:25;;;;;;;0.60;0.60;;;;;;;;;;5071366;28;20651;-75
2021/06/24 04:27:52;;;;;;;2.55;0.85;;;;;;;;;;5071033;28;20037;-75
2021/06/24 04:30:18;;;;;;;1.55;1.08;;;;;;;;;;5071517;28;20123;-75
2021/06/24 04:32:45;;;;;;;0.60;0.60;;;;;;;;;;5071469;28;21240;-75
2021/06/24 04:35:11;;;;;;;0.43;0.43;;;;;;;;;;5069961;28;20491;-75
2021/06/24 04:37:38;;;;;;;0.63;0.63;;;;;;;;;;5071766;28;20048;-75
2021/06/24 04:40:05;;;;;;;0.63;0.63;;;;;;;;;;5071761;28;20135;-75
2021/06/24 04:42:31;;;;;;;0.47;0.47;;;;;;;;;;5071280;28;20048;-75
2021/06/24 04:44:57;;;;;;;0.68;0.68;;;;;;;;;;5071001;28;20095;-75
2021/06/24 04:47:23;;;;;;;1.10;1.02;;;;;;;;;;5070892;28;20423;-75
2021/06/24 04:49:49;;;;;;;0.80;0.80;;;;;;;;;;5071322;28;20075;-75
2021/06/24 04:52:16;;;;;;;1.42;0.98;;;;;;;;;;5071017;28;20579;-75
2021/06/24 04:54:42;;;;;;;0.50;0.50;;;;;;;;;;5070652;28;20044;-75
2021/06/24 04:57:08;;;;;;;1.02;0.77;;;;;;;;;;5071238;28;20071;-75
2021/06/24 04:59:34;;;;;;;0.80;0.80;;;;;;;;;;5070922;28;20044;-76
2021/06/24 05:02:00;;;;;;;0.60;0.60;;;;;;;;;;5071228;28;20078;-75
2021/06/24 05:04:26;;;;;;;0.47;0.47;;;;;;;;;;5069920;28;20499;-75
2021/06/24 05:06:56;;;;;;;0.68;0.68;;;;;;;;;;5071120;28;20048;-75
2021/06/24 05:09:28;;;;;;;0.50;0.50;;;;;;;;;;5070763;28;20654;-75
2021/06/24 05:11:54;;;;;;;0.77;0.70;;;;;;;;;;5070291;28;20060;-75
2021/06/24 05:14:20;;;;;;;3.22;1.25;;;;;;;;;;5070144;28;20052;-75
2021/06/24 05:16:47;;;;;;;0.60;0.60;;;;;;;;;;5070568;28;20063;-75
2021/06/24 05:19:13;;;;;;;0.50;0.50;;;;;;;;;;5070339;28;20041;-75
2021/06/24 05:21:39;;;;;;;1.10;0.70;;;;;;;;;;5070622;28;20079;-75
2021/06/24 05:24:06;;;;;;;1.20;0.77;;;;;;;;;;5070397;28;20049;-75
2021/06/24 05:26:32;;;;;;;0.70;0.70;;;;;;;;;;5069777;28;20510;-75
2021/06/24 05:28:58;;;;;;;0.80;0.60;;;;;;;;;;5071134;28;20048;-75
2021/06/24 05:31:24;;;;;;;0.60;0.60;;;;;;;;;;5069422;28;20131;-75
2021/06/24 05:33:50;;;;;;;0.50;0.50;;;;;;;;;;5070236;28;20067;-75
2021/06/24 05:36:16;;;;;;;0.65;0.60;;;;;;;;;;5070097;28;20057;-75
2021/06/24 05:38:42;;;;;;;0.63;0.63;;;;;;;;;;5070884;28;20131;-75
2021/06/24 05:41:08;;;;;;;0.57;0.55;;;;;;;;;;5070092;28;20060;-75
2021/06/24 05:43:35;;;;;;;0.75;0.75;;;;;;;;;;5069313;28;20119;-75
2021/06/24 05:46:01;;;;;;;0.60;0.60;;;;;;;;;;5070343;28;20102;-75
2021/06/24 05:48:27;;;;;;;0.45;0.45;;;;;;;;;;5069191;28;20107;-75
2021/06/24 05:50:53;;;;;;;0.50;0.50;;;;;;;;;;5070169;28;20415;-75
2021/06/24 05:53:19;;;;;;;1.20;0.50;;;;;;;;;;5065130;28;20056;-75
2021/06/24 05:55:51;;;;;;;1.00;0.73;;;;;;;;;;5061412;28;20075;-75
2021/06/24 05:58:28;;;;;;;0.68;0.52;;;;;;;;;;5062350;28;20499;-75
2021/06/24 06:00:55;;;;;;;0.40;0.40;;;;;;;;;;5067394;28;20049;-79
2021/06/24 06:03:22;;;;;;;1.13;0.73;;;;;;;;;;5065528;28;20051;-68
2021/06/24 06:05:49;;;;;;;0.93;0.40;;;;;;;;;;5059787;28;20052;-68
2021/06/24 06:08:15;;;;;;;0.95;0.30;;;;;;;;;;5060929;28;20052;-68
2021/06/24 06:10:42;;;;;;;0.32;0.25;;;;;;;;;;5069003;28;20064;-68
2021/06/24 06:13:08;;;;;;;1.25;0.30;;;;;;;;;;5068960;28;20044;-68
2021/06/24 06:15:39;;;;;;;0.50;0.30;;;;;;;;;;5068968;28;20045;-68
2021/06/24 06:18:12;;;;;;;1.77;0.63;;;;;;;;;;5069471;28;20048;-68
2021/06/24 06:20:38;;;;;;;0.95;0.57;;;;;;;;;;5065695;28;20059;-68
2021/06/24 06:23:05;;;;;;;2.88;0.60;;;;;;;;;;5066385;28;20045;-68
2021/06/24 06:25:31;;;;;;;0.35;0.32;;;;;;;;;;5064599;28;20418;-68
2021/06/24 06:27:57;;;;;;;2.65;0.50;;;;;;;;;;5065590;28;20081;-68
2021/06/24 06:30:25;;;;;;;4.55;0.52;;;;;;;;;;5064074;28;20037;-68
2021/06/24 06:32:51;;;;;;;0.32;0.32;;;;;;;;;;5061635;28;20060;-68
2021/06/24 06:35:17;;;;;;;3.30;0.70;;;;;;;;;;5065404;28;20605;-68
2021/06/24 06:37:43;;;;;;;3.13;0.70;;;;;;;;;;5047323;28;20060;-68
2021/06/24 06:40:11;;;;;;;2.88;1.10;;;;;;;;;;5055938;28;20048;-68
2021/06/24 06:42:37;;;;;;;2.70;0.80;;;;;;;;;;5057763;28;20613;-68
2021/06/24 06:45:04;;;;;;;2.25;0.73;;;;;;;;;;5067865;28;20048;-68
2021/06/24 06:47:30;;;;;;;0.98;0.90;;;;;;;;;;5079779;28;20067;-68
2021/06/24 06:49:56;;;;;;;0.68;0.55;;;;;;;;;;5068102;28;20102;-68
2021/06/24 06:52:22;;;;;;;1.77;0.65;;;;;;;;;;5065773;28;20445;-68
2021/06/24 06:54:48;;;;;;;3.80;0.82;;;;;;;;;;5066229;28;20100;-68
2021/06/24 06:57:14;;;;;;;1.45;0.65;;;;;;;;;;5062831;28;20063;-68
2021/06/24 06:59:41;;;;;;;3.75;1.10;;;;;;;;;;5055581;28;20116;-68
2021/06/24 07:02:08;;;;;;;2.28;2.08;;;;;;;;;;5061234;28;20036;-68
2021/06/24 07:04:34;;;;;;;5.05;2.00;;;;;;;;;;5061356;28;20045;-68
2021/06/24 07:07:00;;;;;;;1.35;1.08;;;;;;;;;;5062465;28;20080;-70
2021/06/24 07:09:27;;;;;;;1.13;1.00;;;;;;;;;;5059520;28;20095;-68
2021/06/24 07:11:53;;;;;;;3.55;1.38;;;;;;;;;;5062214;28;20056;-68
2021/06/24 07:14:21;;;;;;;3.00;1.25;;;;;;;;;;5057695;28;20044;-68
2021/06/24 07:16:47;;;;;;;6.47;0.70;;;;;;;;;;5060868;28;20534;-68
2021/06/24 07:19:13;;;;;;;1.30;0.57;;;;;;;;;;5058696;28;20049;-69
2021/06/24 07:21:39;;;;;;;0.90;0.50;;;;;;;;;;5062555;28;20049;-69
2021/06/24 07:24:06;;;;;;;1.27;0.75;;;;;;;;;;5063045;28;20143;-68
2021/06/24 07:26:32;;;;;;;4.75;0.60;;;;;;;;;;5062554;28;20063;-69
2021/06/24 07:28:59;;;;;;;3.08;1.10;;;;;;;;;;5062489;28;20132;-69
2021/06/24 07:31:25;;;;;;;1.27;0.75;;;;;;;;;;5062253;28;20133;-68
2021/06/24 07:33:51;;;;;;;0.47;0.45;;;;;;;;;;5064123;28;20048;-69
2021/06/24 07:36:17;;;;;;;1.20;0.82;;;;;;;;;;5058924;28;20476;-69
2021/06/24 07:38:43;;;;;;;2.70;0.77;;;;;;;;;;5063221;28;20049;-76
2021/06/24 07:41:10;;;;;;;2.70;0.60;;;;;;;;;;5063356;28;20040;-67
2021/06/24 07:43:36;;;;;;;4.07;0.65;;;;;;;;;;5063898;28;20144;-68
2021/06/24 07:46:02;;;;;;;1.17;0.63;;;;;;;;;;5062197;28;20056;-68
2021/06/24 07:48:28;;;;;;;1.35;0.63;;;;;;;;;;5062973;28;20083;-69
2021/06/24 07:50:54;;;;;;;5.43;0.57;;;;;;;;;;5063240;28;20084;-69
2021/06/24 07:53:20;;;;;;;2.65;0.50;;;;;;;;;;5061767;28;20052;-72
2021/06/24 07:55:47;;;;;;;3.00;0.65;;;;;;;;;;5061878;28;20197;-68
2021/06/24 07:58:13;;;;;;;1.55;0.55;;;;;;;;;;5062491;28;20063;-69
2021/06/24 08:00:39;;;;;;;2.25;0.77;;;;;;;;;;5060109;28;20052;-69
2021/06/24 08:03:06;;;;;;;3.83;0.80;;;;;;;;;;5061772;28;20625;-69
2021/06/24 08:05:33;;;;;;;2.15;0.85;;;;;;;;;;5060201;28;20084;-68
2021/06/24 08:07:59;;;;;;;1.48;0.77;;;;;;;;;;5056393;28;20399;-68
2021/06/24 08:10:25;;;;;;;2.65;1.08;;;;;;;;;;5059637;28;20052;-69
2021/06/24 08:12:51;;;;;;;1.60;0.95;;;;;;;;;;5062734;28;20048;-69
2021/06/24 08:15:18;;;;;;;0.85;0.82;;;;;;;;;;5059020;28;20060;-68
2021/06/24 08:17:45;;;;;;;2.42;0.80;;;;;;;;;;5061771;28;20531;-71
2021/06/24 08:20:12;;;;;;;3.00;0.60;;;;;;;;;;5056916;28;20163;-68
2021/06/24 08:22:39;;;;;;;2.50;0.95;;;;;;;;;;5062500;28;20056;-68
2021/06/24 08:25:05;;;;;;;2.47;0.77;;;;;;;;;;5060459;28;20140;-68
2021/06/24 08:27:32;;;;;;;3.53;1.35;;;;;;;;;;5061799;28;20106;-68
2021/06/24 08:29:58;;;;;;;1.23;0.70;;;;;;;;;;5061174;28;20060;-68
2021/06/24 08:32:25;;;;;;;2.05;0.50;;;;;;;;;;5061305;28;20507;-68
2021/06/24 08:34:51;;;;;;;1.38;0.57;;;;;;;;;;5059367;28;20072;-69
2021/06/24 08:37:18;;;;;;;2.80;0.50;;;;;;;;;;5059901;28;20040;-68
2021/06/24 08:39:44;;;;;;;0.63;0.60;;;;;;;;;;5059466;28;20139;-68
2021/06/24 08:42:13;;;;;;;0.63;0.50;;;;;;;;;;5061754;28;20045;-68
2021/06/24 08:44:40;;;;;;;5.43;0.63;;;;;;;;;;5061017;28;20144;-69
2021/06/24 08:47:07;;;;;;;0.75;0.70;;;;;;;;;;5060374;28;20096;-69
2021/06/24 08:49:33;;;;;;;1.67;0.77;;;;;;;;;;5062584;28;20056;-69
2021/06/24 08:51:59;;;;;;;1.95;0.73;;;;;;;;;;5062689;28;20060;-69
2021/06/24 08:54:26;;;;;;;2.00;0.82;;;;;;;;;;5061655;28;20691;-69
2021/06/24 08:56:53;;;;;;;1.40;0.95;;;;;;;;;;5056029;28;20548;-67
2021/06/24 08:59:19;;;;;;;3.60;0.68;;;;;;;;;;5060129;28;20086;-68
2021/06/24 09:01:58;;;;;;;0.70;0.30;;;;;;;;;;5061761;28;20503;-67
2021/06/24 09:04:29;;;;;;;1.05;0.68;;;;;;;;;;5058382;28;20059;-69
2021/06/24 09:07:07;;;;;;;2.38;0.40;;;;;;;;;;5059363;28;20084;-68
2021/06/24 09:09:34;;;;;;;2.30;0.65;;;;;;;;;;5059082;28;20500;-69
2021/06/24 09:12:03;;;;;;;1.63;0.50;;;;;;;;;;5059606;28;20109;-69
2021/06/24 09:14:40;;;;;;;4.03;0.35;;;;;;;;;;5057654;28;20614;-69
2021/06/24 09:17:06;;;;;;;1.65;0.57;;;;;;;;;;5057049;28;20064;-69
2021/06/24 09:19:32;;;;;;;3.78;0.30;;;;;;;;;;5060789;28;20137;-68
2021/06/24 09:21:59;;;;;;;1.85;0.30;;;;;;;;;;5061546;28;20056;-69
2021/06/24 09:24:30;;;;;;;2.03;0.47;;;;;;;;;;5060622;28;20048;-69
2021/06/24 09:26:57;;;;;;;1.23;0.40;;;;;;;;;;5059592;28;20577;-68
2021/06/24 09:29:23;;;;;;;1.77;0.95;;;;;;;;;;5059690;28;20807;-68
2021/06/24 09:31:50;;;;;;;0.68;0.40;;;;;;;;;;5062011;28;20396;-68
2021/06/24 09:34:18;;;;;;;0.43;0.43;;;;;;;;;;5060989;28;20052;-68
2021/06/24 09:36:48;;;;;;;1.02;0.55;;;;;;;;;;5058380;28;20075;-68
2021/06/24 09:39:25;;;;;;;3.33;0.43;;;;;;;;;;5059115;28;20053;-69
2021/06/24 09:42:07;;;;;;;0.30;0.22;;;;;;;;;;5060422;28;20041;-68
2021/06/24 09:44:40;;;;;;;0.63;0.55;;;;;;;;;;5185020;27;20140;-68
2021/06/24 09:47:17;;;;;;;0.95;0.52;;;;;;;;;;5136390;27;20054;-67
2021/06/24 09:49:55;;;;;;;0.80;0.68;;;;;;;;;;5167810;27;20476;-67
2021/06/24 09:52:21;;;;;;;3.15;1.33;;;;;;;;;;5166495;27;20034;-68
2021/06/24 09:54:50;;;;;;;1.35;0.70;;;;;;;;;;5157756;27;20603;-68
2021/06/24 09:57:23;;;;;;;1.38;0.50;;;;;;;;;;5162006;27;20080;-68
2021/06/24 09:59:50;;;;;;;0.70;0.70;;;;;;;;;;5145641;27;20531;-68
2021/06/24 10:02:18;;;;;;;0.73;0.60;;;;;;;;;;5164530;27;20050;-68
2021/06/24 10:04:45;;;;;;;0.28;0.28;;;;;;;;;;5159619;27;20115;-68
2021/06/24 10:07:13;;;;;;;1.75;0.30;;;;;;;;;;5158182;27;20485;-69
2021/06/24 10:09:40;;;;;;;0.50;0.40;;;;;;;;;;5160026;27;20075;-68
2021/06/24 10:12:29;;;;;;;3.60;0.20;;;;;;;;;;5162984;27;20052;-68
2021/06/24 10:14:57;;;;;;;0.60;0.50;;;;;;;;;;5168688;27;20053;-68
2021/06/24 10:17:23;;;;;;;1.27;0.75;;;;;;;;;;5145792;27;20056;-68
2021/06/24 10:19:52;;;;;;;0.68;0.40;;;;;;;;;;5178468;27;20058;-68
2021/06/24 10:22:23;;;;;;;0.98;0.50;;;;;;;;;;5163751;27;20038;-67
2021/06/24 10:24:52;;;;;;;1.90;0.50;;;;;;;;;;5164458;27;20524;-67
2021/06/24 10:27:18;;;;;;;0.85;0.50;;;;;;;;;;5162210;27;20152;-67
2021/06/24 10:29:52;;;;;;;0.28;0.28;;;;;;;;;;5165645;27;20123;-68
2021/06/24 10:32:25;;;;;;;0.73;0.50;;;;;;;;;;5166046;27;20715;-68
2021/06/24 10:34:52;;;;;;;2.95;0.85;;;;;;;;;;5181172;27;20046;-68
2021/06/24 10:37:23;;;;;;;2.42;0.60;;;;;;;;;;5180378;27;20077;-68
2021/06/24 10:39:50;;;;;;;3.10;0.45;;;;;;;;;;5180121;27;20572;-67
2021/06/24 10:42:16;;;;;;;2.13;0.47;;;;;;;;;;5166713;27;20030;-68
2021/06/24 10:44:42;;;;;;;2.58;0.60;;;;;;;;;;5177163;27;20112;-67
2021/06/24 10:47:09;;;;;;;0.90;0.30;;;;;;;;;;5168080;27;20051;-68
2021/06/24 10:49:35;;;;;;;0.50;0.50;;;;;;;;;;5173501;27;20054;-68
2021/06/24 10:52:26;;;;;;;2.70;0.68;;;;;;;;;;5179488;27;20071;-68
2021/06/24 10:54:56;;;;;;;1.85;1.30;;;;;;;;;;5164722;27;20145;-68
2021/06/24 10:57:31;;;;;;;1.60;0.77;;;;;;;;;;5154623;27;20061;-67
2021/06/24 11:00:17;;;;;;;0.38;0.30;;;;;;;;;;5169804;27;20082;-68
2021/06/24 11:02:47;;;;;;;2.85;1.05;;;;;;;;;;5145138;27;20078;-68
2021/06/24 11:05:20;;;;;;;2.17;0.52;;;;;;;;;;5156327;27;20064;-68
2021/06/24 11:07:46;;;;;;;2.05;0.82;;;;;;;;;;5155769;27;21587;-67
2021/06/24 11:10:25;;;;;;;1.75;0.63;;;;;;;;;;5160310;27;20429;-68
2021/06/24 11:12:55;;;;;;;1.08;0.70;;;;;;;;;;5158466;27;20519;-67
2021/06/24 11:15:57;;;;;;;0.82;0.82;;;;;;;;;;5145078;27;20547;-68
2021/06/24 11:18:32;;;;;;;1.13;1.00;;;;;;;;;;5059556;28;20114;-67
2021/06/24 11:21:17;;;;;;;1.13;0.65;;;;;;;;;;5134978;27;20050;-68
2021/06/24 11:23:50;;;;;;;0.75;0.75;;;;;;;;;;5149138;27;20046;-68
2021/06/24 11:26:28;;;;;;;1.77;0.70;;;;;;;;;;5163731;27;20065;-68
2021/06/24 11:28:56;;;;;;;2.17;0.73;;;;;;;;;;5161332;27;20130;-68
2021/06/24 11:31:39;;;;;;;0.70;0.70;;;;;;;;;;5152851;27;20781;-68
2021/06/24 11:36:35;;;;;;;0.90;0.90;;;;;;;;;;5155695;27;20058;-67
2021/06/24 11:39:01;;;;;;;1.58;0.88;;;;;;;;;;5152893;27;20049;-67
2021/06/24 11:41:27;;;;;;;1.23;0.95;;;;;;;;;;5147761;27;20859;-67
2021/06/24 11:44:06;;;;;;;2.72;0.90;;;;;;;;;;5148211;27;20042;-68
2021/06/24 11:46:34;;;;;;;2.03;1.58;;;;;;;;;;5146366;27;20572;-68
2021/06/24 12:05:07;;;;;;;2.72;0.80;;;;;;;;;;5145960;27;20059;-69
2021/06/24 12:07:33;;;;;;;3.67;1.15;;;;;;;;;;5143149;27;20175;-68
2021/06/24 12:09:59;;;;;;;1.33;1.23;;;;;;;;;;5159046;27;20046;-68
2021/06/24 12:12:26;;;;;;;2.45;0.73;;;;;;;;;;5146715;27;20644;-68
2021/06/24 12:14:55;;;;;;;1.40;1.13;;;;;;;;;;5144357;27;20047;-68
2021/06/24 12:17:24;;;;;;;3.08;1.30;;;;;;;;;;5141218;27;20038;-67
2021/06/24 12:19:59;;;;;;;3.05;1.90;;;;;;;;;;5147739;27;20046;-68
2021/06/24 12:22:26;;;;;;;1.48;1.05;;;;;;;;;;5145105;27;20055;-68
2021/06/24 12:24:53;;;;;;;3.65;1.45;;;;;;;;;;5147711;27;20043;-67
2021/06/24 12:27:19;;;;;;;2.95;0.90;;;;;;;;;;5150434;27;20038;-68
2021/06/24 12:29:46;;;;;;;1.55;0.95;;;;;;;;;;5147726;27;20054;-68
2021/06/24 12:32:13;;;;;;;0.90;0.75;;;;;;;;;;5141601;27;20107;-68
2021/06/24 12:34:39;;;;;;;2.15;0.95;;;;;;;;;;5143986;27;20051;-68
2021/06/24 12:37:05;;;;;;;0.85;0.80;;;;;;;;;;5145407;27;20180;-68
2021/06/24 12:39:31;;;;;;;1.85;1.02;;;;;;;;;;5160469;27;20053;-68
2021/06/24 12:41:57;;;;;;;3.45;1.35;;;;;;;;;;5138263;27;20367;-68
2021/06/24 12:44:23;;;;;;;1.00;1.00;;;;;;;;;;5142520;27;20061;-68
2021/06/24 12:46:50;;;;;;;1.48;0.98;;;;;;;;;;5136772;27;20098;-68
2021/06/24 12:49:17;;;;;;;1.58;1.20;;;;;;;;;;5140203;27;20045;-68
2021/06/24 12:51:44;;;;;;;1.88;1.50;;;;;;;;;;5141636;27;20607;-68
2021/06/24 12:54:17;;;;;;;1.20;0.80;;;;;;;;;;5141331;27;20404;-69
2021/06/24 12:56:47;;;;;;;2.15;1.45;;;;;;;;;;5153581;27;20072;-68
2021/06/24 12:59:19;;;;;;;6.38;1.40;;;;;;;;;;5150710;27;20042;-68
2021/06/24 13:01:46;;;;;;;2.88;1.27;;;;;;;;;;5140697;27;20073;-68
2021/06/24 13:04:16;;;;;;;2.17;1.08;;;;;;;;;;5146438;27;20046;-68
2021/06/24 13:06:48;;;;;;;1.25;0.90;;;;;;;;;;5141491;27;20086;-67
2021/06/24 13:09:15;;;;;;;1.83;1.13;;;;;;;;;;5145246;27;20065;-68
2021/06/24 13:12:01;;;;;;;2.15;0.95;;;;;;;;;;5146221;27;20043;-67
2021/06/24 13:14:32;;;;;;;3.42;0.98;;;;;;;;;;5138952;27;20066;-68
2021/06/24 13:17:03;;;;;;;2.40;1.50;;;;;;;;;;5142169;27;20054;-68
2021/06/24 13:19:31;;;;;;;5.47;1.27;;;;;;;;;;5147228;27;20070;-68
2021/06/24 13:22:11;;;;;;;3.83;1.25;;;;;;;;;;5149957;27;20054;-68
2021/06/24 13:24:38;;;;;;;2.40;1.20;;;;;;;;;;5148083;27;20085;-68
2021/06/24 13:27:18;;;;;;;1.45;1.35;;;;;;;;;;5139539;27;20051;-68
2021/06/24 13:30:02;;;;;;;1.58;1.48;;;;;;;;;;5146035;27;20057;-68
2021/06/24 13:32:29;;;;;;;1.75;1.05;;;;;;;;;;5139947;27;20050;-68
2021/06/24 13:34:55;;;;;;;2.85;1.00;;;;;;;;;;5141834;27;20164;-68
2021/06/24 13:37:21;;;;;;;1.63;1.05;;;;;;;;;;5140771;27;20102;-68
2021/06/24 13:39:50;;;;;;;1.73;0.98;;;;;;;;;;5145260;27;20069;-68
2021/06/24 13:42:17;;;;;;;1.60;1.20;;;;;;;;;;5142255;27;20053;-68
2021/06/24 13:44:43;;;;;;;2.30;1.35;;;;;;;;;;5149268;27;20069;-68
2021/06/24 13:47:09;;;;;;;2.50;1.55;;;;;;;;;;5147254;27;20088;-68
2021/06/24 13:49:35;;;;;;;2.55;2.00;;;;;;;;;;5146116;27;20473;-67
2021/06/24 13:52:02;;;;;;;1.55;1.45;;;;;;;;;;5145944;27;20061;-68
2021/06/24 13:54:29;;;;;;;4.85;2.42;;;;;;;;;;5125158;27;20157;-67
2021/06/24 13:56:56;;;;;;;1.73;1.63;;;;;;;;;;5141403;27;20425;-67
2021/06/24 13:59:26;;;;;;;3.15;2.28;;;;;;;;;;5146642;27;20063;-67
2021/06/24 14:01:53;;;;;;;3.90;1.63;;;;;;;;;;5142374;27;20134;-67
2021/06/24 14:04:19;;;;;;;3.55;1.83;;;;;;;;;;5140719;27;20061;-67
2021/06/24 14:06:48;;;;;;;3.33;2.50;;;;;;;;;;5144839;27;20061;-67
2021/06/24 14:09:19;;;;;;;2.55;1.48;;;;;;;;;;5144434;27;20102;-67
2021/06/24 14:11:46;;;;;;;2.10;1.42;;;;;;;;;;5146145;27;20061;-67
2021/06/24 14:14:12;;;;;;;2.05;1.95;;;;;;;;;;5147298;27;20046;-68
2021/06/24 14:16:38;;;;;;;10.02;2.15;;;;;;;;;;5115620;27;21909;-68
2021/06/24 14:19:05;;;;;;;3.72;2.47;;;;;;;;;;5145769;27;20066;-67
2021/06/24 14:21:32;;;;;;;2.50;2.13;;;;;;;;;;5148224;27;20054;-67
2021/06/24 14:24:00;;;;;;;1.77;1.67;;;;;;;;;;5126813;27;20535;-67
2021/06/24 14:26:27;;;;;;;1.67;1.58;;;;;;;;;;5141637;27;20370;-67
2021/06/24 14:28:53;;;;;;;5.13;1.55;;;;;;;;;;5141500;27;20075;-67
2021/06/24 14:31:20;;;;;;;1.85;1.25;;;;;;;;;;5152352;27;20061;-68
2021/06/24 14:33:46;;;;;;;2.88;1.75;;;;;;;;;;5148592;27;20038;-67
2021/06/24 14:36:13;;;;;;;2.28;1.67;;;;;;;;;;5144713;27;20513;-67
2021/06/24 14:38:39;;;;;;;3.30;1.50;;;;;;;;;;5151713;27;20133;-67
2021/06/24 14:41:06;;;;;;;4.10;2.40;;;;;;;;;;5147871;27;20574;-67
2021/06/24 14:43:32;;;;;;;3.22;1.88;;;;;;;;;;5154837;27;20050;-66
2021/06/24 14:46:03;;;;;;;2.72;1.65;;;;;;;;;;5147328;27;20047;-67
2021/06/24 14:48:29;;;;;;;3.10;1.52;;;;;;;;;;5147535;27;20062;-67
2021/06/24 14:50:55;;;;;;;4.70;2.00;;;;;;;;;;5149130;27;20419;-67
2021/06/24 14:53:22;;;;;;;3.47;1.83;;;;;;;;;;5144406;27;20057;-67
2021/06/24 14:55:48;;;;;;;2.08;1.88;;;;;;;;;;5147747;27;20050;-66
2021/06/24 14:58:14;;;;;;;3.00;1.30;;;;;;;;;;5147323;27;20089;-67
2021/06/24 15:00:41;;;;;;;1.73;1.40;;;;;;;;;;5150512;27;20145;-67
2021/06/24 15:03:08;;;;;;;2.10;2.00;;;;;;;;;;5148096;27;20145;-67
2021/06/24 15:05:34;;;;;;;1.75;1.52;;;;;;;;;;5143556;27;20056;-68